McCalla, AL (35111)

10:29 AM CST on November 28, 2014 (GMT -0600)
McCalla, Judson Valley | Change Station
CLOSE
Current Station
Personal Weather Station
Location: McCalla, AL
Elevation: 521 ft
Nearby Weather Stations

Elev 521 ft 33.30 °N, 87.05 °W | Updated 13 minutes ago

Clear
Clear
46.5 °F
Feels Like 46 °F
N
0.0
Wind Variable Wind from East
Gusts 5.0 mph

Today
High -- | Low -- °F
--% Chance of Precip.
Yesterday
High -- | Low -- °F
Precip. -- in
6:31 AM 4:41 PM
Waxing Crescent, 42% visible
Pressure 30.46 in
Visibility 10.0 miles
Clouds Clear
Windchill 46 °F
Dew Point 19 °F
Humidity 33%
Rainfall 0.00 in
Snow Depth Not available.
UV 3 out of 12
Pollen .30 out of 12
Air Quality Not available.
Flu Activity Not available.
METAR KEET 281553Z AUTO VRB05KT 10SM CLR 06/M08 A3045 RMK AO2 SLP313 T00561083

More Conditions Fewer Conditions

Pressure 30.46 in
Visibility 10.0 miles
Clouds Clear
Windchill 46 °F
Dew Point 19 °F
Humidity 33%
Rainfall 0.00 in
Snow Depth Not available.
UV 3 out of 12
Pollen .30 out of 12
Air Quality Not available.
Flu Activity Not available.
METAR KEET 281553Z AUTO VRB05KT 10SM CLR 06/M08 A3045 RMK AO2 SLP313 T00561083

More Conditions Fewer Conditions

10-Day Weather Forecast

Almanac

Astronomy

Nov. 28, 2014 Rise Set
Actual Time
Civil Twilight
Nautical Twilight
Astronomical Twilight
Moon
Length of Visible Light
Length of Day
Tomorrow will be .
, % of the Moon is Illuminated

Today's Extremes

State Highs State Lows

Community

WunderPhotos

Upload Photos

1,774,229 photos uploaded!

WunderBlogs® & News

Nearby

Air Quality

  Air Quality AQ Index Pollutant
Not available.

Snow Depth

Station Depth Elevation

Earthquake Activity

City Distance Mag. Time & Date
Minimum magnitude displayed is 2.5.

Coastal Water Temperatures

Place Temperature

Nearby Weather Stations